sensor_id;sensor_type;location;lat;lon;timestamp;P1;durP1;ratioP1;P2;durP2;ratioP2
52180;SDS011;38158;53.338;6.514;2022-12-05T00:06:03;30.77;;;17.13;;
52180;SDS011;38158;53.338;6.514;2022-12-05T00:08:29;29.30;;;16.23;;
52180;SDS011;38158;53.338;6.514;2022-12-05T00:10:55;31.20;;;18.15;;
52180;SDS011;38158;53.338;6.514;2022-12-05T00:13:21;37.42;;;19.25;;
52180;SDS011;38158;53.338;6.514;2022-12-05T00:15:46;36.38;;;18.92;;
52180;SDS011;38158;53.338;6.514;2022-12-05T00:18:12;35.05;;;18.88;;
52180;SDS011;38158;53.338;6.514;2022-12-05T00:20:43;40.58;;;20.63;;
52180;SDS011;38158;53.338;6.514;2022-12-05T00:23:13;40.13;;;20.33;;
52180;SDS011;38158;53.338;6.514;2022-12-05T00:25:39;37.13;;;21.52;;
52180;SDS011;38158;53.338;6.514;2022-12-05T00:28:05;31.77;;;19.63;;
52180;SDS011;38158;53.338;6.514;2022-12-05T00:30:31;35.63;;;19.67;;
52180;SDS011;38158;53.338;6.514;2022-12-05T00:32:57;37.63;;;20.02;;
52180;SDS011;38158;53.338;6.514;2022-12-05T00:35:22;37.45;;;18.95;;
52180;SDS011;38158;53.338;6.514;2022-12-05T00:37:48;33.83;;;18.90;;
52180;SDS011;38158;53.338;6.514;2022-12-05T00:40:14;32.25;;;16.90;;
52180;SDS011;38158;53.338;6.514;2022-12-05T00:42:40;33.28;;;18.00;;
52180;SDS011;38158;53.338;6.514;2022-12-05T00:45:05;28.33;;;15.80;;
52180;SDS011;38158;53.338;6.514;2022-12-05T00:47:35;31.45;;;17.13;;
52180;SDS011;38158;53.338;6.514;2022-12-05T00:50:01;31.25;;;15.52;;
52180;SDS011;38158;53.338;6.514;2022-12-05T00:52:28;26.90;;;15.18;;
52180;SDS011;38158;53.338;6.514;2022-12-05T00:54:54;29.98;;;15.98;;
52180;SDS011;38158;53.338;6.514;2022-12-05T00:57:19;28.45;;;16.40;;
52180;SDS011;38158;53.338;6.514;2022-12-05T00:59:45;28.27;;;15.45;;
52180;SDS011;38158;53.338;6.514;2022-12-05T01:02:11;30.35;;;15.90;;
52180;SDS011;38158;53.338;6.514;2022-12-05T01:04:36;25.13;;;14.05;;
52180;SDS011;38158;53.338;6.514;2022-12-05T01:07:02;23.27;;;14.50;;
52180;SDS011;38158;53.338;6.514;2022-12-05T01:09:28;23.52;;;13.30;;
52180;SDS011;38158;53.338;6.514;2022-12-05T01:11:54;27.00;;;14.68;;
52180;SDS011;38158;53.338;6.514;2022-12-05T01:14:21;24.67;;;14.00;;
52180;SDS011;38158;53.338;6.514;2022-12-05T01:16:48;19.98;;;11.90;;
52180;SDS011;38158;53.338;6.514;2022-12-05T01:19:17;24.17;;;13.82;;
52180;SDS011;38158;53.338;6.514;2022-12-05T01:21:45;22.73;;;12.27;;
52180;SDS011;38158;53.338;6.514;2022-12-05T01:24:14;21.27;;;12.75;;
52180;SDS011;38158;53.338;6.514;2022-12-05T01:26:42;24.65;;;12.70;;
52180;SDS011;38158;53.338;6.514;2022-12-05T01:29:08;17.85;;;11.75;;
52180;SDS011;38158;53.338;6.514;2022-12-05T01:31:36;26.65;;;12.43;;
52180;SDS011;38158;53.338;6.514;2022-12-05T01:34:03;23.33;;;12.35;;
52180;SDS011;38158;53.338;6.514;2022-12-05T01:36:31;20.30;;;11.38;;
52180;SDS011;38158;53.338;6.514;2022-12-05T01:38:57;18.60;;;10.93;;
52180;SDS011;38158;53.338;6.514;2022-12-05T01:41:24;19.08;;;10.00;;
52180;SDS011;38158;53.338;6.514;2022-12-05T01:46:37;15.57;;;9.13;;
52180;SDS011;38158;53.338;6.514;2022-12-05T01:51:57;17.10;;;9.82;;
52180;SDS011;38158;53.338;6.514;2022-12-05T01:54:30;15.95;;;9.57;;
52180;SDS011;38158;53.338;6.514;2022-12-05T01:57:00;16.25;;;8.25;;
52180;SDS011;38158;53.338;6.514;2022-12-05T01:59:31;16.45;;;8.68;;
52180;SDS011;38158;53.338;6.514;2022-12-05T02:01:58;15.73;;;8.40;;
52180;SDS011;38158;53.338;6.514;2022-12-05T02:04:25;14.77;;;9.17;;
52180;SDS011;38158;53.338;6.514;2022-12-05T02:06:52;14.02;;;8.73;;
52180;SDS011;38158;53.338;6.514;2022-12-05T02:09:18;17.13;;;9.32;;
52180;SDS011;38158;53.338;6.514;2022-12-05T02:11:50;16.40;;;8.75;;
52180;SDS011;38158;53.338;6.514;2022-12-05T02:14:28;14.77;;;7.65;;
52180;SDS011;38158;53.338;6.514;2022-12-05T02:17:08;13.00;;;7.90;;
52180;SDS011;38158;53.338;6.514;2022-12-05T02:19:53;15.38;;;7.07;;
52180;SDS011;38158;53.338;6.514;2022-12-05T02:30:21;11.55;;;6.72;;
52180;SDS011;38158;53.338;6.514;2022-12-05T02:35:41;14.40;;;6.97;;
52180;SDS011;38158;53.338;6.514;2022-12-05T02:41:48;11.80;;;6.47;;
52180;SDS011;38158;53.338;6.514;2022-12-05T02:47:00;12.75;;;6.50;;
52180;SDS011;38158;53.338;6.514;2022-12-05T02:49:29;11.45;;;6.53;;
52180;SDS011;38158;53.338;6.514;2022-12-05T02:51:57;11.25;;;6.85;;
52180;SDS011;38158;53.338;6.514;2022-12-05T02:54:26;12.07;;;6.75;;
52180;SDS011;38158;53.338;6.514;2022-12-05T02:56:57;16.05;;;7.15;;
52180;SDS011;38158;53.338;6.514;2022-12-05T02:59:24;14.13;;;6.78;;
52180;SDS011;38158;53.338;6.514;2022-12-05T03:01:50;10.77;;;6.20;;
52180;SDS011;38158;53.338;6.514;2022-12-05T03:04:17;14.23;;;6.70;;
52180;SDS011;38158;53.338;6.514;2022-12-05T03:06:48;12.73;;;7.07;;
52180;SDS011;38158;53.338;6.514;2022-12-05T03:09:22;12.63;;;6.30;;
52180;SDS011;38158;53.338;6.514;2022-12-05T03:11:53;12.65;;;7.38;;
52180;SDS011;38158;53.338;6.514;2022-12-05T03:14:51;11.35;;;6.30;;
52180;SDS011;38158;53.338;6.514;2022-12-05T03:17:23;13.23;;;7.30;;
52180;SDS011;38158;53.338;6.514;2022-12-05T03:19:56;15.63;;;7.15;;
52180;SDS011;38158;53.338;6.514;2022-12-05T03:22:43;13.88;;;7.38;;
52180;SDS011;38158;53.338;6.514;2022-12-05T03:25:24;14.23;;;7.50;;
52180;SDS011;38158;53.338;6.514;2022-12-05T03:28:01;13.82;;;7.57;;
52180;SDS011;38158;53.338;6.514;2022-12-05T03:30:34;14.95;;;7.47;;
52180;SDS011;38158;53.338;6.514;2022-12-05T03:38:34;18.75;;;8.15;;
52180;SDS011;38158;53.338;6.514;2022-12-05T03:43:52;16.73;;;7.53;;
52180;SDS011;38158;53.338;6.514;2022-12-05T03:46:52;20.00;;;8.85;;
52180;SDS011;38158;53.338;6.514;2022-12-05T03:51:54;16.30;;;8.50;;
52180;SDS011;38158;53.338;6.514;2022-12-05T03:55:04;19.42;;;8.52;;
52180;SDS011;38158;53.338;6.514;2022-12-05T03:57:30;17.88;;;8.52;;
52180;SDS011;38158;53.338;6.514;2022-12-05T04:00:02;19.67;;;8.82;;
52180;SDS011;38158;53.338;6.514;2022-12-05T04:02:38;19.05;;;9.07;;
52180;SDS011;38158;53.338;6.514;2022-12-05T04:07:45;16.80;;;9.32;;
52180;SDS011;38158;53.338;6.514;2022-12-05T04:10:18;16.23;;;9.00;;
52180;SDS011;38158;53.338;6.514;2022-12-05T04:12:46;19.60;;;8.82;;
52180;SDS011;38158;53.338;6.514;2022-12-05T04:15:18;20.35;;;9.15;;
52180;SDS011;38158;53.338;6.514;2022-12-05T04:17:50;19.58;;;9.23;;
52180;SDS011;38158;53.338;6.514;2022-12-05T04:23:18;18.67;;;8.65;;
52180;SDS011;38158;53.338;6.514;2022-12-05T04:25:49;17.45;;;8.80;;
52180;SDS011;38158;53.338;6.514;2022-12-05T04:31:29;14.48;;;9.35;;
52180;SDS011;38158;53.338;6.514;2022-12-05T04:34:03;17.52;;;9.30;;
52180;SDS011;38158;53.338;6.514;2022-12-05T04:36:45;18.95;;;9.13;;
52180;SDS011;38158;53.338;6.514;2022-12-05T04:42:19;19.70;;;9.18;;
52180;SDS011;38158;53.338;6.514;2022-12-05T04:44:53;17.90;;;8.48;;
52180;SDS011;38158;53.338;6.514;2022-12-05T04:47:25;19.40;;;9.50;;
52180;SDS011;38158;53.338;6.514;2022-12-05T04:49:55;18.75;;;8.52;;
52180;SDS011;38158;53.338;6.514;2022-12-05T04:52:22;19.15;;;9.45;;
52180;SDS011;38158;53.338;6.514;2022-12-05T04:54:51;16.35;;;8.63;;
52180;SDS011;38158;53.338;6.514;2022-12-05T04:57:25;15.68;;;8.57;;
52180;SDS011;38158;53.338;6.514;2022-12-05T04:59:55;17.25;;;9.15;;
52180;SDS011;38158;53.338;6.514;2022-12-05T05:02:23;17.38;;;9.02;;
52180;SDS011;38158;53.338;6.514;2022-12-05T05:04:55;19.48;;;8.50;;
52180;SDS011;38158;53.338;6.514;2022-12-05T05:07:24;15.23;;;7.80;;
52180;SDS011;38158;53.338;6.514;2022-12-05T05:09:50;13.65;;;8.00;;
52180;SDS011;38158;53.338;6.514;2022-12-05T05:12:16;14.38;;;8.10;;
52180;SDS011;38158;53.338;6.514;2022-12-05T05:14:42;18.02;;;9.38;;
52180;SDS011;38158;53.338;6.514;2022-12-05T05:17:08;20.83;;;9.50;;
52180;SDS011;38158;53.338;6.514;2022-12-05T05:19:33;17.92;;;8.50;;
52180;SDS011;38158;53.338;6.514;2022-12-05T05:21:59;16.80;;;8.82;;
52180;SDS011;38158;53.338;6.514;2022-12-05T05:24:25;15.13;;;8.20;;
52180;SDS011;38158;53.338;6.514;2022-12-05T05:26:50;23.33;;;8.20;;
52180;SDS011;38158;53.338;6.514;2022-12-05T05:29:16;15.55;;;8.18;;
52180;SDS011;38158;53.338;6.514;2022-12-05T05:31:43;15.73;;;8.15;;
52180;SDS011;38158;53.338;6.514;2022-12-05T05:34:09;14.93;;;8.23;;
52180;SDS011;38158;53.338;6.514;2022-12-05T05:36:36;14.55;;;8.10;;
52180;SDS011;38158;53.338;6.514;2022-12-05T05:39:02;17.13;;;8.85;;
52180;SDS011;38158;53.338;6.514;2022-12-05T05:41:30;17.73;;;8.18;;
52180;SDS011;38158;53.338;6.514;2022-12-05T05:43:58;19.02;;;8.98;;
52180;SDS011;38158;53.338;6.514;2022-12-05T05:46:25;14.57;;;8.50;;
52180;SDS011;38158;53.338;6.514;2022-12-05T05:48:55;15.80;;;8.43;;
52180;SDS011;38158;53.338;6.514;2022-12-05T05:51:21;24.33;;;8.85;;
52180;SDS011;38158;53.338;6.514;2022-12-05T05:53:49;14.80;;;7.63;;
52180;SDS011;38158;53.338;6.514;2022-12-05T05:56:16;15.82;;;8.20;;
52180;SDS011;38158;53.338;6.514;2022-12-05T05:58:43;13.25;;;7.07;;
52180;SDS011;38158;53.338;6.514;2022-12-05T06:01:13;17.60;;;8.52;;
52180;SDS011;38158;53.338;6.514;2022-12-05T06:03:46;14.52;;;7.22;;
52180;SDS011;38158;53.338;6.514;2022-12-05T06:06:13;15.65;;;8.30;;
52180;SDS011;38158;53.338;6.514;2022-12-05T06:08:39;15.13;;;8.37;;
52180;SDS011;38158;53.338;6.514;2022-12-05T06:11:07;18.92;;;7.63;;
52180;SDS011;38158;53.338;6.514;2022-12-05T06:13:35;17.77;;;8.35;;
52180;SDS011;38158;53.338;6.514;2022-12-05T06:16:03;13.77;;;6.63;;
52180;SDS011;38158;53.338;6.514;2022-12-05T06:18:33;19.90;;;8.20;;
52180;SDS011;38158;53.338;6.514;2022-12-05T06:20:59;16.58;;;6.93;;
52180;SDS011;38158;53.338;6.514;2022-12-05T06:23:25;15.38;;;8.18;;
52180;SDS011;38158;53.338;6.514;2022-12-05T06:25:52;17.40;;;8.53;;
52180;SDS011;38158;53.338;6.514;2022-12-05T06:28:19;15.57;;;7.88;;
52180;SDS011;38158;53.338;6.514;2022-12-05T06:30:46;20.00;;;8.52;;
52180;SDS011;38158;53.338;6.514;2022-12-05T06:33:12;17.05;;;8.45;;
52180;SDS011;38158;53.338;6.514;2022-12-05T06:35:37;16.08;;;7.85;;
52180;SDS011;38158;53.338;6.514;2022-12-05T06:38:04;16.98;;;7.88;;
52180;SDS011;38158;53.338;6.514;2022-12-05T06:42:56;16.40;;;7.28;;
52180;SDS011;38158;53.338;6.514;2022-12-05T06:45:22;18.55;;;7.45;;
52180;SDS011;38158;53.338;6.514;2022-12-05T06:47:49;17.23;;;7.00;;
52180;SDS011;38158;53.338;6.514;2022-12-05T06:50:15;18.30;;;7.82;;
52180;SDS011;38158;53.338;6.514;2022-12-05T06:52:41;15.30;;;7.47;;
52180;SDS011;38158;53.338;6.514;2022-12-05T06:55:07;14.98;;;7.28;;
52180;SDS011;38158;53.338;6.514;2022-12-05T06:57:33;24.73;;;8.05;;
52180;SDS011;38158;53.338;6.514;2022-12-05T06:59:58;15.27;;;6.93;;
52180;SDS011;38158;53.338;6.514;2022-12-05T07:02:43;14.93;;;6.50;;
52180;SDS011;38158;53.338;6.514;2022-12-05T07:05:09;22.50;;;6.63;;
52180;SDS011;38158;53.338;6.514;2022-12-05T07:07:36;16.40;;;6.30;;
52180;SDS011;38158;53.338;6.514;2022-12-05T07:10:03;16.33;;;6.63;;
52180;SDS011;38158;53.338;6.514;2022-12-05T07:12:31;15.25;;;5.78;;
52180;SDS011;38158;53.338;6.514;2022-12-05T07:17:23;15.55;;;5.78;;
52180;SDS011;38158;53.338;6.514;2022-12-05T07:19:49;13.18;;;5.72;;
52180;SDS011;38158;53.338;6.514;2022-12-05T07:22:19;12.45;;;5.35;;
52180;SDS011;38158;53.338;6.514;2022-12-05T07:24:46;20.05;;;7.60;;
52180;SDS011;38158;53.338;6.514;2022-12-05T07:27:14;15.40;;;5.72;;
52180;SDS011;38158;53.338;6.514;2022-12-05T07:29:40;14.98;;;5.88;;
52180;SDS011;38158;53.338;6.514;2022-12-05T07:32:06;14.50;;;5.10;;
52180;SDS011;38158;53.338;6.514;2022-12-05T07:34:32;14.00;;;5.65;;
52180;SDS011;38158;53.338;6.514;2022-12-05T07:36:58;11.35;;;5.57;;
52180;SDS011;38158;53.338;6.514;2022-12-05T07:39:24;14.40;;;5.50;;
52180;SDS011;38158;53.338;6.514;2022-12-05T07:41:50;15.68;;;5.88;;
52180;SDS011;38158;53.338;6.514;2022-12-05T07:44:15;13.40;;;5.88;;
52180;SDS011;38158;53.338;6.514;2022-12-05T07:46:41;16.42;;;5.50;;
52180;SDS011;38158;53.338;6.514;2022-12-05T07:49:07;14.55;;;6.43;;
52180;SDS011;38158;53.338;6.514;2022-12-05T07:51:33;15.90;;;6.65;;
52180;SDS011;38158;53.338;6.514;2022-12-05T07:53:59;18.15;;;6.13;;
52180;SDS011;38158;53.338;6.514;2022-12-05T07:56:25;15.95;;;6.30;;
52180;SDS011;38158;53.338;6.514;2022-12-05T07:58:51;15.85;;;5.97;;
52180;SDS011;38158;53.338;6.514;2022-12-05T08:01:21;13.65;;;5.45;;
52180;SDS011;38158;53.338;6.514;2022-12-05T08:03:49;16.48;;;6.32;;
52180;SDS011;38158;53.338;6.514;2022-12-05T08:06:18;16.48;;;5.57;;
52180;SDS011;38158;53.338;6.514;2022-12-05T08:08:46;15.07;;;6.63;;
52180;SDS011;38158;53.338;6.514;2022-12-05T08:11:22;14.77;;;6.28;;
52180;SDS011;38158;53.338;6.514;2022-12-05T08:13:50;21.20;;;7.35;;
52180;SDS011;38158;53.338;6.514;2022-12-05T08:16:17;17.92;;;6.80;;
52180;SDS011;38158;53.338;6.514;2022-12-05T08:18:45;17.23;;;6.25;;
52180;SDS011;38158;53.338;6.514;2022-12-05T08:21:17;16.98;;;7.47;;
52180;SDS011;38158;53.338;6.514;2022-12-05T08:23:43;19.25;;;6.78;;
52180;SDS011;38158;53.338;6.514;2022-12-05T08:26:13;16.98;;;7.13;;
52180;SDS011;38158;53.338;6.514;2022-12-05T08:28:59;19.50;;;6.93;;
52180;SDS011;38158;53.338;6.514;2022-12-05T08:31:28;18.08;;;7.22;;
52180;SDS011;38158;53.338;6.514;2022-12-05T08:33:55;16.38;;;6.55;;
52180;SDS011;38158;53.338;6.514;2022-12-05T08:36:22;14.95;;;7.28;;
52180;SDS011;38158;53.338;6.514;2022-12-05T08:38:48;16.48;;;7.03;;
52180;SDS011;38158;53.338;6.514;2022-12-05T08:41:14;16.15;;;6.70;;
52180;SDS011;38158;53.338;6.514;2022-12-05T08:43:42;17.77;;;7.45;;
52180;SDS011;38158;53.338;6.514;2022-12-05T08:46:09;21.17;;;7.18;;
52180;SDS011;38158;53.338;6.514;2022-12-05T08:48:35;19.37;;;6.90;;
52180;SDS011;38158;53.338;6.514;2022-12-05T08:51:09;14.65;;;7.10;;
52180;SDS011;38158;53.338;6.514;2022-12-05T08:53:37;20.67;;;7.75;;
52180;SDS011;38158;53.338;6.514;2022-12-05T08:56:04;19.95;;;8.10;;
52180;SDS011;38158;53.338;6.514;2022-12-05T08:58:31;18.60;;;7.75;;
52180;SDS011;38158;53.338;6.514;2022-12-05T09:03:39;16.05;;;7.18;;
52180;SDS011;38158;53.338;6.514;2022-12-05T09:06:07;19.30;;;7.40;;
52180;SDS011;38158;53.338;6.514;2022-12-05T09:08:38;15.80;;;7.47;;
52180;SDS011;38158;53.338;6.514;2022-12-05T09:11:09;19.13;;;8.23;;
52180;SDS011;38158;53.338;6.514;2022-12-05T09:13:40;17.05;;;8.18;;
52180;SDS011;38158;53.338;6.514;2022-12-05T09:16:07;21.02;;;7.18;;
52180;SDS011;38158;53.338;6.514;2022-12-05T09:18:34;18.08;;;7.00;;
52180;SDS011;38158;53.338;6.514;2022-12-05T09:21:19;15.07;;;6.88;;
52180;SDS011;38158;53.338;6.514;2022-12-05T09:23:47;19.77;;;7.25;;
52180;SDS011;38158;53.338;6.514;2022-12-05T09:26:15;17.85;;;8.18;;
52180;SDS011;38158;53.338;6.514;2022-12-05T09:28:42;20.48;;;7.50;;
52180;SDS011;38158;53.338;6.514;2022-12-05T09:31:15;19.27;;;8.30;;
52180;SDS011;38158;53.338;6.514;2022-12-05T09:33:46;22.23;;;8.18;;
52180;SDS011;38158;53.338;6.514;2022-12-05T09:36:13;26.05;;;7.95;;
52180;SDS011;38158;53.338;6.514;2022-12-05T09:38:41;18.30;;;6.95;;
52180;SDS011;38158;53.338;6.514;2022-12-05T09:47:10;17.88;;;6.85;;
52180;SDS011;38158;53.338;6.514;2022-12-05T09:49:38;16.70;;;7.65;;
52180;SDS011;38158;53.338;6.514;2022-12-05T09:52:18;17.35;;;7.40;;
52180;SDS011;38158;53.338;6.514;2022-12-05T09:54:51;21.92;;;8.20;;
52180;SDS011;38158;53.338;6.514;2022-12-05T09:57:21;18.20;;;7.25;;
52180;SDS011;38158;53.338;6.514;2022-12-05T09:59:54;19.98;;;7.57;;
52180;SDS011;38158;53.338;6.514;2022-12-05T10:02:25;15.30;;;7.60;;
52180;SDS011;38158;53.338;6.514;2022-12-05T10:05:37;17.05;;;7.40;;
52180;SDS011;38158;53.338;6.514;2022-12-05T10:08:16;21.33;;;8.77;;
52180;SDS011;38158;53.338;6.514;2022-12-05T10:11:02;20.20;;;7.88;;
52180;SDS011;38158;53.338;6.514;2022-12-05T10:16:17;22.88;;;8.05;;
52180;SDS011;38158;53.338;6.514;2022-12-05T10:18:57;19.77;;;8.07;;
52180;SDS011;38158;53.338;6.514;2022-12-05T10:26:44;15.77;;;7.55;;
52180;SDS011;38158;53.338;6.514;2022-12-05T10:31:48;21.80;;;9.05;;
52180;SDS011;38158;53.338;6.514;2022-12-05T10:34:17;19.88;;;8.57;;
52180;SDS011;38158;53.338;6.514;2022-12-05T10:36:57;15.98;;;7.65;;
52180;SDS011;38158;53.338;6.514;2022-12-05T10:39:29;20.08;;;8.13;;
52180;SDS011;38158;53.338;6.514;2022-12-05T10:41:55;16.67;;;8.55;;
52180;SDS011;38158;53.338;6.514;2022-12-05T10:44:21;17.90;;;8.32;;
52180;SDS011;38158;53.338;6.514;2022-12-05T10:46:47;20.27;;;8.15;;
52180;SDS011;38158;53.338;6.514;2022-12-05T10:49:12;15.55;;;7.45;;
52180;SDS011;38158;53.338;6.514;2022-12-05T10:51:38;18.95;;;7.03;;
52180;SDS011;38158;53.338;6.514;2022-12-05T10:54:16;16.73;;;7.32;;
52180;SDS011;38158;53.338;6.514;2022-12-05T10:56:45;17.75;;;6.60;;
52180;SDS011;38158;53.338;6.514;2022-12-05T10:59:14;13.35;;;6.53;;
52180;SDS011;38158;53.338;6.514;2022-12-05T11:01:55;15.60;;;6.78;;
52180;SDS011;38158;53.338;6.514;2022-12-05T11:06:59;19.30;;;6.70;;
52180;SDS011;38158;53.338;6.514;2022-12-05T11:09:30;17.23;;;6.38;;
52180;SDS011;38158;53.338;6.514;2022-12-05T11:14:38;14.75;;;6.28;;
52180;SDS011;38158;53.338;6.514;2022-12-05T11:17:05;14.88;;;6.75;;
52180;SDS011;38158;53.338;6.514;2022-12-05T11:19:32;21.00;;;6.15;;
52180;SDS011;38158;53.338;6.514;2022-12-05T11:22:00;15.65;;;6.32;;
52180;SDS011;38158;53.338;6.514;2022-12-05T11:26:57;14.20;;;6.18;;
52180;SDS011;38158;53.338;6.514;2022-12-05T11:29:32;16.35;;;6.07;;
52180;SDS011;38158;53.338;6.514;2022-12-05T11:32:00;15.85;;;6.45;;
52180;SDS011;38158;53.338;6.514;2022-12-05T11:37:26;14.23;;;5.82;;
52180;SDS011;38158;53.338;6.514;2022-12-05T11:39:55;12.32;;;4.82;;
52180;SDS011;38158;53.338;6.514;2022-12-05T11:45:02;9.95;;;4.57;;
52180;SDS011;38158;53.338;6.514;2022-12-05T11:48:13;10.48;;;3.75;;
52180;SDS011;38158;53.338;6.514;2022-12-05T11:50:51;13.00;;;4.20;;
52180;SDS011;38158;53.338;6.514;2022-12-05T11:56:29;14.98;;;4.50;;
52180;SDS011;38158;53.338;6.514;2022-12-05T12:02:03;10.18;;;3.97;;
52180;SDS011;38158;53.338;6.514;2022-12-05T12:15:18;10.52;;;3.50;;
52180;SDS011;38158;53.338;6.514;2022-12-05T12:18:51;11.43;;;3.47;;
52180;SDS011;38158;53.338;6.514;2022-12-05T12:21:16;9.10;;;3.17;;
52180;SDS011;38158;53.338;6.514;2022-12-05T12:24:12;6.78;;;2.70;;
52180;SDS011;38158;53.338;6.514;2022-12-05T12:26:52;10.65;;;3.38;;
52180;SDS011;38158;53.338;6.514;2022-12-05T12:43:53;9.75;;;2.85;;
52180;SDS011;38158;53.338;6.514;2022-12-05T12:51:53;7.78;;;2.80;;
52180;SDS011;38158;53.338;6.514;2022-12-05T12:54:44;7.65;;;3.35;;
52180;SDS011;38158;53.338;6.514;2022-12-05T12:57:24;13.45;;;4.75;;
52180;SDS011;38158;53.338;6.514;2022-12-05T13:08:49;8.90;;;3.15;;
52180;SDS011;38158;53.338;6.514;2022-12-05T13:11:00;16.58;;;4.10;;
52180;SDS011;38158;53.338;6.514;2022-12-05T13:13:35;11.02;;;3.33;;
52180;SDS011;38158;53.338;6.514;2022-12-05T13:16:07;11.95;;;3.33;;
52180;SDS011;38158;53.338;6.514;2022-12-05T13:18:36;13.80;;;3.75;;
52180;SDS011;38158;53.338;6.514;2022-12-05T13:21:04;9.65;;;3.33;;
52180;SDS011;38158;53.338;6.514;2022-12-05T13:23:37;14.93;;;3.47;;
52180;SDS011;38158;53.338;6.514;2022-12-05T13:26:09;11.23;;;3.63;;
52180;SDS011;38158;53.338;6.514;2022-12-05T13:28:45;10.55;;;4.03;;
52180;SDS011;38158;53.338;6.514;2022-12-05T13:31:41;9.85;;;3.30;;
52180;SDS011;38158;53.338;6.514;2022-12-05T13:36:51;12.13;;;3.45;;
52180;SDS011;38158;53.338;6.514;2022-12-05T13:39:37;14.68;;;3.42;;
52180;SDS011;38158;53.338;6.514;2022-12-05T13:42:25;7.35;;;3.30;;
52180;SDS011;38158;53.338;6.514;2022-12-05T13:44:55;9.82;;;3.60;;
52180;SDS011;38158;53.338;6.514;2022-12-05T13:47:32;11.60;;;3.42;;
52180;SDS011;38158;53.338;6.514;2022-12-05T13:50:26;10.27;;;3.60;;
52180;SDS011;38158;53.338;6.514;2022-12-05T13:53:21;9.80;;;3.50;;
52180;SDS011;38158;53.338;6.514;2022-12-05T13:58:57;9.32;;;3.33;;
52180;SDS011;38158;53.338;6.514;2022-12-05T14:03:53;9.90;;;3.95;;
52180;SDS011;38158;53.338;6.514;2022-12-05T14:17:22;10.52;;;4.15;;
52180;SDS011;38158;53.338;6.514;2022-12-05T14:22:35;12.70;;;3.85;;
52180;SDS011;38158;53.338;6.514;2022-12-05T14:27:59;12.38;;;3.65;;
52180;SDS011;38158;53.338;6.514;2022-12-05T14:33:39;10.07;;;3.80;;
52180;SDS011;38158;53.338;6.514;2022-12-05T14:36:05;8.75;;;3.53;;
52180;SDS011;38158;53.338;6.514;2022-12-05T14:38:37;10.18;;;4.00;;
52180;SDS011;38158;53.338;6.514;2022-12-05T14:43:50;10.77;;;3.90;;
52180;SDS011;38158;53.338;6.514;2022-12-05T14:46:25;10.07;;;3.67;;
52180;SDS011;38158;53.338;6.514;2022-12-05T14:48:54;14.70;;;4.40;;
52180;SDS011;38158;53.338;6.514;2022-12-05T14:54:07;9.85;;;4.28;;
52180;SDS011;38158;53.338;6.514;2022-12-05T14:56:52;13.07;;;4.20;;
52180;SDS011;38158;53.338;6.514;2022-12-05T14:59:55;13.27;;;4.53;;
52180;SDS011;38158;53.338;6.514;2022-12-05T15:02:29;10.63;;;4.15;;
52180;SDS011;38158;53.338;6.514;2022-12-05T15:05:42;9.80;;;3.88;;
52180;SDS011;38158;53.338;6.514;2022-12-05T15:07:46;9.43;;;4.38;;
52180;SDS011;38158;53.338;6.514;2022-12-05T15:13:00;12.60;;;4.40;;
52180;SDS011;38158;53.338;6.514;2022-12-05T15:15:38;12.02;;;3.85;;
52180;SDS011;38158;53.338;6.514;2022-12-05T15:18:11;12.07;;;4.40;;
52180;SDS011;38158;53.338;6.514;2022-12-05T15:23:47;13.00;;;4.15;;
52180;SDS011;38158;53.338;6.514;2022-12-05T15:34:28;10.43;;;4.30;;
52180;SDS011;38158;53.338;6.514;2022-12-05T15:39:49;12.65;;;4.10;;
52180;SDS011;38158;53.338;6.514;2022-12-05T15:42:22;13.30;;;3.95;;
52180;SDS011;38158;53.338;6.514;2022-12-05T15:44:49;15.05;;;4.35;;
52180;SDS011;38158;53.338;6.514;2022-12-05T15:47:21;11.95;;;4.45;;
52180;SDS011;38158;53.338;6.514;2022-12-05T15:49:48;13.95;;;4.97;;
52180;SDS011;38158;53.338;6.514;2022-12-05T15:52:21;12.48;;;4.60;;
52180;SDS011;38158;53.338;6.514;2022-12-05T15:54:59;13.70;;;4.05;;
52180;SDS011;38158;53.338;6.514;2022-12-05T15:57:35;11.23;;;3.67;;
52180;SDS011;38158;53.338;6.514;2022-12-05T16:00:11;12.00;;;4.47;;
52180;SDS011;38158;53.338;6.514;2022-12-05T16:02:41;11.38;;;4.30;;
52180;SDS011;38158;53.338;6.514;2022-12-05T16:05:26;14.30;;;4.45;;
52180;SDS011;38158;53.338;6.514;2022-12-05T16:07:55;10.05;;;4.55;;
52180;SDS011;38158;53.338;6.514;2022-12-05T16:10:21;11.48;;;4.85;;
52180;SDS011;38158;53.338;6.514;2022-12-05T16:12:49;13.05;;;4.53;;
52180;SDS011;38158;53.338;6.514;2022-12-05T16:17:46;17.75;;;4.88;;
52180;SDS011;38158;53.338;6.514;2022-12-05T16:22:48;11.35;;;4.60;;
52180;SDS011;38158;53.338;6.514;2022-12-05T16:25:17;14.82;;;4.82;;
52180;SDS011;38158;53.338;6.514;2022-12-05T16:27:54;11.73;;;5.00;;
52180;SDS011;38158;53.338;6.514;2022-12-05T16:30:38;11.95;;;4.85;;
52180;SDS011;38158;53.338;6.514;2022-12-05T16:33:05;11.25;;;4.38;;
52180;SDS011;38158;53.338;6.514;2022-12-05T16:35:41;12.27;;;4.93;;
52180;SDS011;38158;53.338;6.514;2022-12-05T16:38:12;11.27;;;4.10;;
52180;SDS011;38158;53.338;6.514;2022-12-05T16:43:27;11.98;;;4.35;;
52180;SDS011;38158;53.338;6.514;2022-12-05T16:48:41;10.98;;;4.88;;
52180;SDS011;38158;53.338;6.514;2022-12-05T16:51:16;12.88;;;4.57;;
52180;SDS011;38158;53.338;6.514;2022-12-05T16:53:50;10.73;;;4.63;;
52180;SDS011;38158;53.338;6.514;2022-12-05T16:56:19;11.82;;;3.85;;
52180;SDS011;38158;53.338;6.514;2022-12-05T16:58:48;14.98;;;4.28;;
52180;SDS011;38158;53.338;6.514;2022-12-05T17:01:15;10.35;;;3.28;;
52180;SDS011;38158;53.338;6.514;2022-12-05T17:03:43;13.10;;;3.63;;
52180;SDS011;38158;53.338;6.514;2022-12-05T17:06:09;11.18;;;4.03;;
52180;SDS011;38158;53.338;6.514;2022-12-05T17:08:35;10.48;;;4.15;;
52180;SDS011;38158;53.338;6.514;2022-12-05T17:11:01;9.77;;;3.92;;
52180;SDS011;38158;53.338;6.514;2022-12-05T17:13:28;13.07;;;3.92;;
52180;SDS011;38158;53.338;6.514;2022-12-05T17:15:54;12.90;;;4.30;;
52180;SDS011;38158;53.338;6.514;2022-12-05T17:18:20;9.07;;;3.38;;
52180;SDS011;38158;53.338;6.514;2022-12-05T17:20:47;9.80;;;3.75;;
52180;SDS011;38158;53.338;6.514;2022-12-05T17:23:15;10.57;;;3.42;;
52180;SDS011;38158;53.338;6.514;2022-12-05T17:25:51;14.10;;;3.72;;
52180;SDS011;38158;53.338;6.514;2022-12-05T17:28:21;16.02;;;3.83;;
52180;SDS011;38158;53.338;6.514;2022-12-05T17:30:47;12.68;;;3.92;;
52180;SDS011;38158;53.338;6.514;2022-12-05T17:33:13;9.90;;;3.63;;
52180;SDS011;38158;53.338;6.514;2022-12-05T17:35:41;10.02;;;3.40;;
52180;SDS011;38158;53.338;6.514;2022-12-05T17:38:07;13.23;;;3.60;;
52180;SDS011;38158;53.338;6.514;2022-12-05T17:43:00;12.65;;;4.15;;
52180;SDS011;38158;53.338;6.514;2022-12-05T17:45:26;12.73;;;3.75;;
52180;SDS011;38158;53.338;6.514;2022-12-05T17:47:51;13.30;;;3.53;;
52180;SDS011;38158;53.338;6.514;2022-12-05T17:50:18;14.25;;;3.63;;
52180;SDS011;38158;53.338;6.514;2022-12-05T17:52:46;12.00;;;3.75;;
52180;SDS011;38158;53.338;6.514;2022-12-05T17:57:41;9.65;;;3.28;;
52180;SDS011;38158;53.338;6.514;2022-12-05T18:00:08;9.45;;;2.97;;
52180;SDS011;38158;53.338;6.514;2022-12-05T18:02:34;10.40;;;3.40;;
52180;SDS011;38158;53.338;6.514;2022-12-05T18:05:00;12.82;;;3.50;;
52180;SDS011;38158;53.338;6.514;2022-12-05T18:07:26;11.90;;;3.13;;
52180;SDS011;38158;53.338;6.514;2022-12-05T18:09:51;9.10;;;2.40;;
52180;SDS011;38158;53.338;6.514;2022-12-05T18:12:17;11.25;;;3.28;;